sensor_id;sensor_type;location;lat;lon;timestamp;P1;durP1;ratioP1;P2;durP2;ratioP2
11514;SDS011;5814;41.936;25.556;2022-11-20T00:00:50;9.43;;;5.68;;
11514;SDS011;5814;41.936;25.556;2022-11-20T00:03:17;8.23;;;5.47;;
11514;SDS011;5814;41.936;25.556;2022-11-20T00:05:44;11.68;;;5.72;;
11514;SDS011;5814;41.936;25.556;2022-11-20T00:08:12;8.57;;;5.50;;
11514;SDS011;5814;41.936;25.556;2022-11-20T00:10:39;11.52;;;5.55;;
11514;SDS011;5814;41.936;25.556;2022-11-20T00:13:06;7.20;;;5.00;;
11514;SDS011;5814;41.936;25.556;2022-11-20T00:15:33;10.48;;;5.57;;
11514;SDS011;5814;41.936;25.556;2022-11-20T00:18:00;11.07;;;5.70;;
11514;SDS011;5814;41.936;25.556;2022-11-20T00:20:27;9.35;;;5.60;;
11514;SDS011;5814;41.936;25.556;2022-11-20T00:22:55;10.32;;;5.65;;
11514;SDS011;5814;41.936;25.556;2022-11-20T00:25:22;11.77;;;6.03;;
11514;SDS011;5814;41.936;25.556;2022-11-20T00:27:49;10.80;;;5.53;;
11514;SDS011;5814;41.936;25.556;2022-11-20T00:30:16;10.52;;;5.80;;
11514;SDS011;5814;41.936;25.556;2022-11-20T00:32:43;13.52;;;6.20;;
11514;SDS011;5814;41.936;25.556;2022-11-20T00:35:11;9.10;;;5.40;;
11514;SDS011;5814;41.936;25.556;2022-11-20T00:37:38;9.07;;;5.62;;
11514;SDS011;5814;41.936;25.556;2022-11-20T00:40:05;11.90;;;5.30;;
11514;SDS011;5814;41.936;25.556;2022-11-20T00:42:33;8.32;;;5.37;;
11514;SDS011;5814;41.936;25.556;2022-11-20T00:45:00;12.30;;;5.78;;
11514;SDS011;5814;41.936;25.556;2022-11-20T00:47:27;6.00;;;4.80;;
11514;SDS011;5814;41.936;25.556;2022-11-20T00:49:55;7.97;;;5.10;;
11514;SDS011;5814;41.936;25.556;2022-11-20T00:52:22;13.85;;;6.40;;
11514;SDS011;5814;41.936;25.556;2022-11-20T00:54:49;10.68;;;5.93;;
11514;SDS011;5814;41.936;25.556;2022-11-20T00:57:16;12.93;;;5.87;;
11514;SDS011;5814;41.936;25.556;2022-11-20T00:59:43;10.05;;;5.50;;
11514;SDS011;5814;41.936;25.556;2022-11-20T01:02:10;10.90;;;5.82;;
11514;SDS011;5814;41.936;25.556;2022-11-20T01:04:38;14.87;;;6.15;;
11514;SDS011;5814;41.936;25.556;2022-11-20T01:07:05;17.58;;;5.93;;
11514;SDS011;5814;41.936;25.556;2022-11-20T01:09:32;10.65;;;5.55;;
11514;SDS011;5814;41.936;25.556;2022-11-20T01:11:59;12.77;;;6.10;;
11514;SDS011;5814;41.936;25.556;2022-11-20T01:14:26;7.80;;;4.82;;
11514;SDS011;5814;41.936;25.556;2022-11-20T01:16:54;12.75;;;5.70;;
11514;SDS011;5814;41.936;25.556;2022-11-20T01:19:21;10.48;;;5.28;;
11514;SDS011;5814;41.936;25.556;2022-11-20T01:21:49;14.02;;;5.57;;
11514;SDS011;5814;41.936;25.556;2022-11-20T01:24:16;8.45;;;4.45;;
11514;SDS011;5814;41.936;25.556;2022-11-20T01:26:43;8.82;;;5.20;;
11514;SDS011;5814;41.936;25.556;2022-11-20T01:29:13;7.87;;;4.70;;
11514;SDS011;5814;41.936;25.556;2022-11-20T01:31:39;9.10;;;5.55;;
11514;SDS011;5814;41.936;25.556;2022-11-20T01:34:12;12.80;;;5.80;;
11514;SDS011;5814;41.936;25.556;2022-11-20T01:36:37;8.93;;;5.40;;
11514;SDS011;5814;41.936;25.556;2022-11-20T01:39:05;12.05;;;5.90;;
11514;SDS011;5814;41.936;25.556;2022-11-20T01:41:33;11.07;;;5.60;;
11514;SDS011;5814;41.936;25.556;2022-11-20T01:44:05;8.85;;;4.45;;
11514;SDS011;5814;41.936;25.556;2022-11-20T01:46:33;9.88;;;5.22;;
11514;SDS011;5814;41.936;25.556;2022-11-20T01:49:02;12.10;;;5.20;;
11514;SDS011;5814;41.936;25.556;2022-11-20T01:51:33;13.38;;;5.57;;
11514;SDS011;5814;41.936;25.556;2022-11-20T01:54:02;9.88;;;5.30;;
11514;SDS011;5814;41.936;25.556;2022-11-20T01:56:29;13.70;;;6.00;;
11514;SDS011;5814;41.936;25.556;2022-11-20T01:58:56;8.60;;;4.65;;
11514;SDS011;5814;41.936;25.556;2022-11-20T02:01:23;11.57;;;5.32;;
11514;SDS011;5814;41.936;25.556;2022-11-20T02:03:50;7.22;;;4.53;;
11514;SDS011;5814;41.936;25.556;2022-11-20T02:06:22;8.38;;;4.97;;
11514;SDS011;5814;41.936;25.556;2022-11-20T02:08:47;12.80;;;5.72;;
11514;SDS011;5814;41.936;25.556;2022-11-20T02:11:14;9.57;;;5.70;;
11514;SDS011;5814;41.936;25.556;2022-11-20T02:13:41;10.65;;;5.30;;
11514;SDS011;5814;41.936;25.556;2022-11-20T02:16:19;10.88;;;5.20;;
11514;SDS011;5814;41.936;25.556;2022-11-20T02:18:48;9.90;;;4.95;;
11514;SDS011;5814;41.936;25.556;2022-11-20T02:26:26;8.23;;;5.10;;
11514;SDS011;5814;41.936;25.556;2022-11-20T02:28:54;9.52;;;5.20;;
11514;SDS011;5814;41.936;25.556;2022-11-20T02:31:21;10.02;;;5.30;;
11514;SDS011;5814;41.936;25.556;2022-11-20T02:33:53;10.70;;;5.25;;
11514;SDS011;5814;41.936;25.556;2022-11-20T02:36:15;7.65;;;5.00;;
11514;SDS011;5814;41.936;25.556;2022-11-20T02:38:42;11.20;;;4.97;;
11514;SDS011;5814;41.936;25.556;2022-11-20T02:41:09;6.18;;;4.40;;
11514;SDS011;5814;41.936;25.556;2022-11-20T02:43:36;10.98;;;5.25;;
11514;SDS011;5814;41.936;25.556;2022-11-20T02:46:07;15.07;;;5.97;;
11514;SDS011;5814;41.936;25.556;2022-11-20T02:48:32;12.15;;;5.40;;
11514;SDS011;5814;41.936;25.556;2022-11-20T02:50:59;15.95;;;5.70;;
11514;SDS011;5814;41.936;25.556;2022-11-20T02:53:26;9.48;;;5.12;;
11514;SDS011;5814;41.936;25.556;2022-11-20T02:55:53;11.30;;;4.90;;
11514;SDS011;5814;41.936;25.556;2022-11-20T02:58:20;10.90;;;5.03;;
11514;SDS011;5814;41.936;25.556;2022-11-20T03:00:47;8.85;;;4.50;;
11514;SDS011;5814;41.936;25.556;2022-11-20T03:03:15;7.85;;;5.10;;
11514;SDS011;5814;41.936;25.556;2022-11-20T03:05:42;9.23;;;4.80;;
11514;SDS011;5814;41.936;25.556;2022-11-20T03:08:09;10.25;;;5.03;;
11514;SDS011;5814;41.936;25.556;2022-11-20T03:10:36;14.35;;;5.40;;
11514;SDS011;5814;41.936;25.556;2022-11-20T03:13:03;8.30;;;5.25;;
11514;SDS011;5814;41.936;25.556;2022-11-20T03:15:31;9.40;;;5.30;;
11514;SDS011;5814;41.936;25.556;2022-11-20T03:17:58;10.25;;;4.80;;
11514;SDS011;5814;41.936;25.556;2022-11-20T03:20:25;9.80;;;5.70;;
11514;SDS011;5814;41.936;25.556;2022-11-20T03:22:53;10.93;;;5.70;;
11514;SDS011;5814;41.936;25.556;2022-11-20T03:25:19;14.63;;;5.12;;
11514;SDS011;5814;41.936;25.556;2022-11-20T03:27:46;14.25;;;4.87;;
11514;SDS011;5814;41.936;25.556;2022-11-20T03:30:14;10.65;;;4.55;;
11514;SDS011;5814;41.936;25.556;2022-11-20T03:32:41;10.43;;;4.90;;
11514;SDS011;5814;41.936;25.556;2022-11-20T03:35:08;9.48;;;4.20;;
11514;SDS011;5814;41.936;25.556;2022-11-20T03:37:35;7.97;;;4.62;;
11514;SDS011;5814;41.936;25.556;2022-11-20T03:40:03;7.25;;;4.47;;
11514;SDS011;5814;41.936;25.556;2022-11-20T03:42:30;10.68;;;5.20;;
11514;SDS011;5814;41.936;25.556;2022-11-20T03:45:03;8.57;;;4.80;;
11514;SDS011;5814;41.936;25.556;2022-11-20T03:47:31;9.60;;;4.45;;
11514;SDS011;5814;41.936;25.556;2022-11-20T03:49:58;5.22;;;4.47;;
11514;SDS011;5814;41.936;25.556;2022-11-20T03:52:25;7.50;;;4.47;;
11514;SDS011;5814;41.936;25.556;2022-11-20T03:54:52;6.78;;;4.90;;
11514;SDS011;5814;41.936;25.556;2022-11-20T03:57:20;6.60;;;5.00;;
11514;SDS011;5814;41.936;25.556;2022-11-20T03:59:47;8.38;;;4.57;;
11514;SDS011;5814;41.936;25.556;2022-11-20T04:02:14;7.18;;;4.60;;
11514;SDS011;5814;41.936;25.556;2022-11-20T04:04:41;10.95;;;4.72;;
11514;SDS011;5814;41.936;25.556;2022-11-20T04:07:09;13.55;;;4.85;;
11514;SDS011;5814;41.936;25.556;2022-11-20T04:09:36;10.10;;;5.00;;
11514;SDS011;5814;41.936;25.556;2022-11-20T04:12:03;10.70;;;5.00;;
11514;SDS011;5814;41.936;25.556;2022-11-20T04:14:31;13.48;;;5.22;;
11514;SDS011;5814;41.936;25.556;2022-11-20T04:16:58;11.57;;;5.40;;
11514;SDS011;5814;41.936;25.556;2022-11-20T04:19:25;5.85;;;4.60;;
11514;SDS011;5814;41.936;25.556;2022-11-20T04:21:52;10.75;;;4.65;;
11514;SDS011;5814;41.936;25.556;2022-11-20T04:24:19;8.77;;;4.25;;
11514;SDS011;5814;41.936;25.556;2022-11-20T04:26:46;9.48;;;5.30;;
11514;SDS011;5814;41.936;25.556;2022-11-20T04:29:14;7.00;;;4.37;;
11514;SDS011;5814;41.936;25.556;2022-11-20T04:31:41;4.95;;;4.30;;
11514;SDS011;5814;41.936;25.556;2022-11-20T04:34:10;12.93;;;4.78;;
11514;SDS011;5814;41.936;25.556;2022-11-20T04:36:35;9.40;;;5.28;;
11514;SDS011;5814;41.936;25.556;2022-11-20T04:39:04;11.98;;;5.10;;
11514;SDS011;5814;41.936;25.556;2022-11-20T04:41:31;8.18;;;5.35;;
11514;SDS011;5814;41.936;25.556;2022-11-20T04:43:58;8.07;;;5.10;;
11514;SDS011;5814;41.936;25.556;2022-11-20T04:46:25;15.55;;;6.05;;
11514;SDS011;5814;41.936;25.556;2022-11-20T04:48:52;15.27;;;5.03;;
11514;SDS011;5814;41.936;25.556;2022-11-20T04:51:19;9.65;;;4.47;;
11514;SDS011;5814;41.936;25.556;2022-11-20T04:53:46;8.95;;;4.60;;
11514;SDS011;5814;41.936;25.556;2022-11-20T04:56:13;5.97;;;4.35;;
11514;SDS011;5814;41.936;25.556;2022-11-20T04:58:40;7.37;;;5.03;;
11514;SDS011;5814;41.936;25.556;2022-11-20T05:01:11;11.20;;;5.50;;
11514;SDS011;5814;41.936;25.556;2022-11-20T05:03:39;11.60;;;4.97;;
11514;SDS011;5814;41.936;25.556;2022-11-20T05:06:06;8.40;;;5.28;;
11514;SDS011;5814;41.936;25.556;2022-11-20T05:08:33;9.80;;;5.20;;
11514;SDS011;5814;41.936;25.556;2022-11-20T05:11:02;10.02;;;5.12;;
11514;SDS011;5814;41.936;25.556;2022-11-20T05:13:29;11.73;;;4.95;;
11514;SDS011;5814;41.936;25.556;2022-11-20T05:16:00;12.27;;;4.93;;
11514;SDS011;5814;41.936;25.556;2022-11-20T05:18:23;14.93;;;5.57;;
11514;SDS011;5814;41.936;25.556;2022-11-20T05:20:54;7.00;;;4.62;;
11514;SDS011;5814;41.936;25.556;2022-11-20T05:23:17;9.00;;;5.12;;
11514;SDS011;5814;41.936;25.556;2022-11-20T05:25:44;10.35;;;4.90;;
11514;SDS011;5814;41.936;25.556;2022-11-20T05:28:12;12.15;;;5.40;;
11514;SDS011;5814;41.936;25.556;2022-11-20T05:30:39;10.57;;;5.20;;
11514;SDS011;5814;41.936;25.556;2022-11-20T05:33:07;7.78;;;5.18;;
11514;SDS011;5814;41.936;25.556;2022-11-20T05:35:33;12.63;;;4.93;;
11514;SDS011;5814;41.936;25.556;2022-11-20T05:38:00;11.23;;;5.60;;
11514;SDS011;5814;41.936;25.556;2022-11-20T05:40:28;11.90;;;5.37;;
11514;SDS011;5814;41.936;25.556;2022-11-20T05:42:55;10.18;;;5.00;;
11514;SDS011;5814;41.936;25.556;2022-11-20T05:45:22;5.68;;;4.35;;
11514;SDS011;5814;41.936;25.556;2022-11-20T05:47:49;8.88;;;5.03;;
11514;SDS011;5814;41.936;25.556;2022-11-20T05:50:16;8.38;;;5.05;;
11514;SDS011;5814;41.936;25.556;2022-11-20T05:52:44;7.47;;;5.07;;
11514;SDS011;5814;41.936;25.556;2022-11-20T05:55:11;6.30;;;4.22;;
11514;SDS011;5814;41.936;25.556;2022-11-20T05:57:38;8.25;;;4.53;;
11514;SDS011;5814;41.936;25.556;2022-11-20T06:00:05;11.30;;;5.03;;
11514;SDS011;5814;41.936;25.556;2022-11-20T06:02:34;8.95;;;5.05;;
11514;SDS011;5814;41.936;25.556;2022-11-20T06:05:01;5.25;;;4.72;;
11514;SDS011;5814;41.936;25.556;2022-11-20T06:07:29;6.07;;;4.28;;
11514;SDS011;5814;41.936;25.556;2022-11-20T06:09:56;9.73;;;4.40;;
11514;SDS011;5814;41.936;25.556;2022-11-20T06:12:23;5.57;;;4.68;;
11514;SDS011;5814;41.936;25.556;2022-11-20T06:14:50;8.85;;;4.78;;
11514;SDS011;5814;41.936;25.556;2022-11-20T06:17:17;11.25;;;5.35;;
11514;SDS011;5814;41.936;25.556;2022-11-20T06:19:44;12.48;;;5.15;;
11514;SDS011;5814;41.936;25.556;2022-11-20T06:22:12;6.78;;;4.40;;
11514;SDS011;5814;41.936;25.556;2022-11-20T06:24:39;8.57;;;4.90;;
11514;SDS011;5814;41.936;25.556;2022-11-20T06:27:06;10.15;;;5.70;;
11514;SDS011;5814;41.936;25.556;2022-11-20T06:29:33;7.53;;;4.75;;
11514;SDS011;5814;41.936;25.556;2022-11-20T06:32:00;9.73;;;5.53;;
11514;SDS011;5814;41.936;25.556;2022-11-20T06:34:27;10.25;;;5.05;;
11514;SDS011;5814;41.936;25.556;2022-11-20T06:36:55;10.50;;;5.68;;
11514;SDS011;5814;41.936;25.556;2022-11-20T06:39:22;10.90;;;5.55;;
11514;SDS011;5814;41.936;25.556;2022-11-20T06:41:49;9.23;;;4.68;;
11514;SDS011;5814;41.936;25.556;2022-11-20T06:44:16;5.87;;;4.35;;
11514;SDS011;5814;41.936;25.556;2022-11-20T06:46:43;11.05;;;5.18;;
11514;SDS011;5814;41.936;25.556;2022-11-20T06:49:11;10.45;;;5.22;;
11514;SDS011;5814;41.936;25.556;2022-11-20T06:51:38;12.32;;;5.72;;
11514;SDS011;5814;41.936;25.556;2022-11-20T06:54:05;9.55;;;5.00;;
11514;SDS011;5814;41.936;25.556;2022-11-20T06:56:32;10.65;;;5.35;;
11514;SDS011;5814;41.936;25.556;2022-11-20T06:59:03;11.85;;;5.12;;
11514;SDS011;5814;41.936;25.556;2022-11-20T07:01:26;7.28;;;4.82;;
11514;SDS011;5814;41.936;25.556;2022-11-20T07:03:54;8.32;;;4.62;;
11514;SDS011;5814;41.936;25.556;2022-11-20T07:06:21;10.95;;;5.72;;
11514;SDS011;5814;41.936;25.556;2022-11-20T07:08:49;8.25;;;5.20;;
11514;SDS011;5814;41.936;25.556;2022-11-20T07:11:15;7.93;;;4.72;;
11514;SDS011;5814;41.936;25.556;2022-11-20T07:13:42;9.50;;;5.30;;
11514;SDS011;5814;41.936;25.556;2022-11-20T07:16:10;7.20;;;4.87;;
11514;SDS011;5814;41.936;25.556;2022-11-20T07:18:37;13.00;;;5.12;;
11514;SDS011;5814;41.936;25.556;2022-11-20T07:21:05;8.63;;;5.03;;
11514;SDS011;5814;41.936;25.556;2022-11-20T07:23:31;7.30;;;4.53;;
11514;SDS011;5814;41.936;25.556;2022-11-20T07:26:02;13.70;;;5.28;;
11514;SDS011;5814;41.936;25.556;2022-11-20T07:28:29;17.55;;;6.22;;
11514;SDS011;5814;41.936;25.556;2022-11-20T07:30:56;8.60;;;5.50;;
11514;SDS011;5814;41.936;25.556;2022-11-20T07:33:23;12.13;;;5.22;;
11514;SDS011;5814;41.936;25.556;2022-11-20T07:35:50;10.98;;;5.57;;
11514;SDS011;5814;41.936;25.556;2022-11-20T07:38:17;10.63;;;5.70;;
11514;SDS011;5814;41.936;25.556;2022-11-20T07:40:44;13.23;;;5.80;;
11514;SDS011;5814;41.936;25.556;2022-11-20T07:43:12;12.48;;;6.10;;
11514;SDS011;5814;41.936;25.556;2022-11-20T07:45:39;13.27;;;5.35;;
11514;SDS011;5814;41.936;25.556;2022-11-20T07:48:06;12.45;;;5.40;;
11514;SDS011;5814;41.936;25.556;2022-11-20T07:50:33;10.35;;;6.00;;
11514;SDS011;5814;41.936;25.556;2022-11-20T07:53:03;10.07;;;5.97;;
11514;SDS011;5814;41.936;25.556;2022-11-20T07:55:29;12.50;;;5.47;;
11514;SDS011;5814;41.936;25.556;2022-11-20T07:57:57;7.32;;;5.22;;
11514;SDS011;5814;41.936;25.556;2022-11-20T08:00:24;12.30;;;6.22;;
11514;SDS011;5814;41.936;25.556;2022-11-20T08:02:51;9.10;;;5.93;;
11514;SDS011;5814;41.936;25.556;2022-11-20T08:05:18;10.43;;;5.47;;
11514;SDS011;5814;41.936;25.556;2022-11-20T08:07:45;12.90;;;6.15;;
11514;SDS011;5814;41.936;25.556;2022-11-20T08:10:13;8.27;;;4.90;;
11514;SDS011;5814;41.936;25.556;2022-11-20T08:12:45;5.93;;;4.43;;
11514;SDS011;5814;41.936;25.556;2022-11-20T08:15:18;18.08;;;5.65;;
11514;SDS011;5814;41.936;25.556;2022-11-20T08:17:45;9.27;;;5.25;;
11514;SDS011;5814;41.936;25.556;2022-11-20T08:20:12;13.65;;;5.95;;
11514;SDS011;5814;41.936;25.556;2022-11-20T08:22:40;11.30;;;5.40;;
11514;SDS011;5814;41.936;25.556;2022-11-20T08:25:07;16.67;;;5.75;;
11514;SDS011;5814;41.936;25.556;2022-11-20T08:27:34;11.90;;;5.82;;
11514;SDS011;5814;41.936;25.556;2022-11-20T08:30:01;8.32;;;5.00;;
11514;SDS011;5814;41.936;25.556;2022-11-20T08:32:29;10.55;;;4.82;;
11514;SDS011;5814;41.936;25.556;2022-11-20T08:34:56;10.68;;;5.90;;
11514;SDS011;5814;41.936;25.556;2022-11-20T08:37:23;11.68;;;5.47;;
11514;SDS011;5814;41.936;25.556;2022-11-20T08:39:50;13.07;;;5.32;;
11514;SDS011;5814;41.936;25.556;2022-11-20T08:42:17;12.30;;;5.85;;
11514;SDS011;5814;41.936;25.556;2022-11-20T08:44:45;11.63;;;5.72;;
11514;SDS011;5814;41.936;25.556;2022-11-20T08:47:12;14.00;;;5.62;;
11514;SDS011;5814;41.936;25.556;2022-11-20T08:49:39;7.68;;;4.40;;
11514;SDS011;5814;41.936;25.556;2022-11-20T08:52:06;18.02;;;6.22;;
11514;SDS011;5814;41.936;25.556;2022-11-20T08:54:33;13.75;;;5.82;;
11514;SDS011;5814;41.936;25.556;2022-11-20T08:57:01;11.85;;;5.60;;
11514;SDS011;5814;41.936;25.556;2022-11-20T08:59:28;14.75;;;5.85;;
11514;SDS011;5814;41.936;25.556;2022-11-20T09:01:55;16.70;;;6.55;;
11514;SDS011;5814;41.936;25.556;2022-11-20T09:04:22;12.80;;;5.57;;
11514;SDS011;5814;41.936;25.556;2022-11-20T09:06:49;16.20;;;7.05;;
11514;SDS011;5814;41.936;25.556;2022-11-20T09:09:17;8.38;;;5.35;;
11514;SDS011;5814;41.936;25.556;2022-11-20T09:11:44;10.68;;;5.12;;
11514;SDS011;5814;41.936;25.556;2022-11-20T09:14:11;17.67;;;5.55;;
11514;SDS011;5814;41.936;25.556;2022-11-20T09:16:38;14.87;;;6.95;;
11514;SDS011;5814;41.936;25.556;2022-11-20T09:19:05;9.57;;;5.93;;
11514;SDS011;5814;41.936;25.556;2022-11-20T09:21:32;13.20;;;6.18;;
11514;SDS011;5814;41.936;25.556;2022-11-20T09:24:00;15.35;;;7.22;;
11514;SDS011;5814;41.936;25.556;2022-11-20T09:26:27;12.60;;;5.70;;
11514;SDS011;5814;41.936;25.556;2022-11-20T09:28:54;15.65;;;6.20;;
11514;SDS011;5814;41.936;25.556;2022-11-20T09:31:22;15.25;;;5.97;;
11514;SDS011;5814;41.936;25.556;2022-11-20T09:33:48;15.55;;;6.25;;
11514;SDS011;5814;41.936;25.556;2022-11-20T09:36:15;16.70;;;5.80;;
11514;SDS011;5814;41.936;25.556;2022-11-20T09:38:43;18.75;;;6.03;;
11514;SDS011;5814;41.936;25.556;2022-11-20T09:41:16;14.52;;;5.57;;
11514;SDS011;5814;41.936;25.556;2022-11-20T09:43:57;12.60;;;5.70;;
11514;SDS011;5814;41.936;25.556;2022-11-20T09:46:28;16.77;;;6.22;;
11514;SDS011;5814;41.936;25.556;2022-11-20T09:49:00;16.73;;;5.15;;
11514;SDS011;5814;41.936;25.556;2022-11-20T09:52:09;25.25;;;6.62;;
11514;SDS011;5814;41.936;25.556;2022-11-20T09:54:19;19.42;;;6.53;;
11514;SDS011;5814;41.936;25.556;2022-11-20T09:56:50;12.18;;;5.28;;
11514;SDS011;5814;41.936;25.556;2022-11-20T09:59:26;24.60;;;6.40;;
11514;SDS011;5814;41.936;25.556;2022-11-20T10:01:53;17.48;;;5.97;;
11514;SDS011;5814;41.936;25.556;2022-11-20T10:04:20;17.60;;;6.57;;
11514;SDS011;5814;41.936;25.556;2022-11-20T10:06:57;17.17;;;6.43;;
11514;SDS011;5814;41.936;25.556;2022-11-20T10:09:29;16.65;;;6.22;;
11514;SDS011;5814;41.936;25.556;2022-11-20T10:12:05;13.68;;;5.47;;
11514;SDS011;5814;41.936;25.556;2022-11-20T10:15:22;17.98;;;6.53;;
11514;SDS011;5814;41.936;25.556;2022-11-20T10:17:34;15.55;;;6.45;;
11514;SDS011;5814;41.936;25.556;2022-11-20T10:20:08;20.17;;;6.65;;
11514;SDS011;5814;41.936;25.556;2022-11-20T10:22:35;16.77;;;5.82;;
11514;SDS011;5814;41.936;25.556;2022-11-20T10:25:19;16.50;;;6.47;;
11514;SDS011;5814;41.936;25.556;2022-11-20T10:30:36;13.68;;;5.32;;
11514;SDS011;5814;41.936;25.556;2022-11-20T10:33:05;18.02;;;6.20;;
11514;SDS011;5814;41.936;25.556;2022-11-20T10:35:35;14.50;;;5.53;;
11514;SDS011;5814;41.936;25.556;2022-11-20T10:38:03;19.55;;;6.03;;
11514;SDS011;5814;41.936;25.556;2022-11-20T10:40:35;15.65;;;5.62;;
11514;SDS011;5814;41.936;25.556;2022-11-20T10:43:08;19.42;;;6.55;;
11514;SDS011;5814;41.936;25.556;2022-11-20T10:45:45;19.33;;;6.80;;
11514;SDS011;5814;41.936;25.556;2022-11-20T10:48:15;21.12;;;6.65;;
11514;SDS011;5814;41.936;25.556;2022-11-20T10:50:55;17.45;;;6.35;;
11514;SDS011;5814;41.936;25.556;2022-11-20T10:53:31;23.48;;;7.43;;
11514;SDS011;5814;41.936;25.556;2022-11-20T10:56:03;19.58;;;7.07;;
11514;SDS011;5814;41.936;25.556;2022-11-20T10:58:32;18.85;;;6.70;;
11514;SDS011;5814;41.936;25.556;2022-11-20T11:01:03;25.23;;;6.97;;
11514;SDS011;5814;41.936;25.556;2022-11-20T11:03:31;22.80;;;6.72;;
11514;SDS011;5814;41.936;25.556;2022-11-20T11:06:00;12.80;;;5.60;;
11514;SDS011;5814;41.936;25.556;2022-11-20T11:08:28;13.62;;;5.53;;
11514;SDS011;5814;41.936;25.556;2022-11-20T11:10:54;17.15;;;6.25;;
11514;SDS011;5814;41.936;25.556;2022-11-20T11:13:22;23.52;;;7.12;;
11514;SDS011;5814;41.936;25.556;2022-11-20T11:15:50;17.83;;;6.65;;
11514;SDS011;5814;41.936;25.556;2022-11-20T11:18:23;19.20;;;6.95;;
11514;SDS011;5814;41.936;25.556;2022-11-20T11:20:52;25.85;;;6.43;;
11514;SDS011;5814;41.936;25.556;2022-11-20T11:23:31;29.63;;;7.55;;
11514;SDS011;5814;41.936;25.556;2022-11-20T11:26:01;21.85;;;6.95;;
11514;SDS011;5814;41.936;25.556;2022-11-20T11:28:27;21.60;;;6.35;;
11514;SDS011;5814;41.936;25.556;2022-11-20T11:30:55;15.52;;;6.22;;
11514;SDS011;5814;41.936;25.556;2022-11-20T11:33:23;23.48;;;6.82;;
11514;SDS011;5814;41.936;25.556;2022-11-20T11:35:51;19.55;;;6.93;;
11514;SDS011;5814;41.936;25.556;2022-11-20T11:38:21;19.15;;;6.30;;
11514;SDS011;5814;41.936;25.556;2022-11-20T11:40:47;25.40;;;7.55;;
11514;SDS011;5814;41.936;25.556;2022-11-20T11:43:18;17.33;;;5.87;;
11514;SDS011;5814;41.936;25.556;2022-11-20T11:45:53;16.23;;;6.05;;
11514;SDS011;5814;41.936;25.556;2022-11-20T11:48:20;16.42;;;6.12;;
11514;SDS011;5814;41.936;25.556;2022-11-20T11:50:48;23.95;;;7.07;;
11514;SDS011;5814;41.936;25.556;2022-11-20T11:53:15;19.83;;;6.57;;
11514;SDS011;5814;41.936;25.556;2022-11-20T12:04:04;23.67;;;6.90;;
11514;SDS011;5814;41.936;25.556;2022-11-20T12:06:37;28.85;;;7.30;;
11514;SDS011;5814;41.936;25.556;2022-11-20T12:09:05;22.62;;;6.72;;
11514;SDS011;5814;41.936;25.556;2022-11-20T12:11:39;21.60;;;6.05;;
11514;SDS011;5814;41.936;25.556;2022-11-20T12:14:27;18.25;;;6.57;;
11514;SDS011;5814;41.936;25.556;2022-11-20T12:16:52;22.48;;;6.97;;
11514;SDS011;5814;41.936;25.556;2022-11-20T12:19:19;19.12;;;6.70;;
11514;SDS011;5814;41.936;25.556;2022-11-20T12:21:50;15.30;;;6.00;;
11514;SDS011;5814;41.936;25.556;2022-11-20T12:24:33;18.60;;;6.53;;
11514;SDS011;5814;41.936;25.556;2022-11-20T12:27:24;18.87;;;6.32;;
11514;SDS011;5814;41.936;25.556;2022-11-20T12:30:07;20.37;;;6.57;;
11514;SDS011;5814;41.936;25.556;2022-11-20T12:32:39;21.75;;;6.53;;
11514;SDS011;5814;41.936;25.556;2022-11-20T12:37:58;20.95;;;6.22;;
11514;SDS011;5814;41.936;25.556;2022-11-20T12:40:27;23.77;;;7.53;;
11514;SDS011;5814;41.936;25.556;2022-11-20T12:42:59;22.73;;;7.62;;
11514;SDS011;5814;41.936;25.556;2022-11-20T12:45:42;25.67;;;6.62;;
11514;SDS011;5814;41.936;25.556;2022-11-20T12:48:16;18.60;;;6.00;;
11514;SDS011;5814;41.936;25.556;2022-11-20T12:50:56;25.85;;;6.90;;
11514;SDS011;5814;41.936;25.556;2022-11-20T12:53:31;24.25;;;6.57;;
11514;SDS011;5814;41.936;25.556;2022-11-20T12:56:06;22.98;;;6.50;;
11514;SDS011;5814;41.936;25.556;2022-11-20T12:58:41;23.65;;;7.53;;
11514;SDS011;5814;41.936;25.556;2022-11-20T13:01:10;26.25;;;6.90;;
11514;SDS011;5814;41.936;25.556;2022-11-20T13:03:38;25.37;;;6.05;;
11514;SDS011;5814;41.936;25.556;2022-11-20T13:06:10;25.60;;;6.70;;
11514;SDS011;5814;41.936;25.556;2022-11-20T13:08:40;21.10;;;6.55;;
11514;SDS011;5814;41.936;25.556;2022-11-20T13:11:09;18.02;;;6.35;;
11514;SDS011;5814;41.936;25.556;2022-11-20T13:16:32;22.52;;;7.00;;
11514;SDS011;5814;41.936;25.556;2022-11-20T13:19:02;27.50;;;7.68;;
11514;SDS011;5814;41.936;25.556;2022-11-20T13:21:36;29.17;;;8.32;;
11514;SDS011;5814;41.936;25.556;2022-11-20T13:24:06;23.70;;;7.32;;
11514;SDS011;5814;41.936;25.556;2022-11-20T13:26:33;20.70;;;6.80;;
11514;SDS011;5814;41.936;25.556;2022-11-20T13:29:03;27.77;;;7.50;;
11514;SDS011;5814;41.936;25.556;2022-11-20T13:31:30;21.00;;;7.12;;
11514;SDS011;5814;41.936;25.556;2022-11-20T13:33:56;22.83;;;6.62;;
11514;SDS011;5814;41.936;25.556;2022-11-20T13:36:25;29.37;;;7.70;;
11514;SDS011;5814;41.936;25.556;2022-11-20T13:38:51;32.72;;;7.62;;
11514;SDS011;5814;41.936;25.556;2022-11-20T13:41:26;27.50;;;8.63;;
11514;SDS011;5814;41.936;25.556;2022-11-20T13:43:57;25.75;;;8.27;;
11514;SDS011;5814;41.936;25.556;2022-11-20T13:46:34;31.12;;;8.65;;
11514;SDS011;5814;41.936;25.556;2022-11-20T13:48:51;38.20;;;10.20;;
11514;SDS011;5814;41.936;25.556;2022-11-20T13:56:43;20.25;;;6.30;;
11514;SDS011;5814;41.936;25.556;2022-11-20T13:59:12;22.25;;;7.53;;
11514;SDS011;5814;41.936;25.556;2022-11-20T14:01:39;29.60;;;7.78;;
11514;SDS011;5814;41.936;25.556;2022-11-20T14:04:06;25.33;;;6.72;;
11514;SDS011;5814;41.936;25.556;2022-11-20T14:06:35;24.77;;;7.53;;
11514;SDS011;5814;41.936;25.556;2022-11-20T14:09:01;25.30;;;6.70;;
11514;SDS011;5814;41.936;25.556;2022-11-20T14:11:29;25.62;;;8.20;;
11514;SDS011;5814;41.936;25.556;2022-11-20T14:13:58;31.15;;;8.13;;
11514;SDS011;5814;41.936;25.556;2022-11-20T14:16:28;28.38;;;7.87;;
11514;SDS011;5814;41.936;25.556;2022-11-20T14:18:54;30.75;;;8.02;;
11514;SDS011;5814;41.936;25.556;2022-11-20T14:21:26;26.90;;;7.93;;
11514;SDS011;5814;41.936;25.556;2022-11-20T14:23:53;31.08;;;8.45;;
11514;SDS011;5814;41.936;25.556;2022-11-20T14:26:19;29.85;;;7.90;;
11514;SDS011;5814;41.936;25.556;2022-11-20T14:28:48;32.83;;;7.18;;
11514;SDS011;5814;41.936;25.556;2022-11-20T14:31:18;33.10;;;7.87;;
11514;SDS011;5814;41.936;25.556;2022-11-20T14:33:43;31.45;;;7.50;;
11514;SDS011;5814;41.936;25.556;2022-11-20T14:36:16;31.65;;;7.72;;
11514;SDS011;5814;41.936;25.556;2022-11-20T14:38:38;44.30;;;8.88;;
11514;SDS011;5814;41.936;25.556;2022-11-20T14:41:06;30.73;;;8.27;;
11514;SDS011;5814;41.936;25.556;2022-11-20T14:43:34;30.65;;;8.57;;
11514;SDS011;5814;41.936;25.556;2022-11-20T14:46:03;25.70;;;8.43;;
11514;SDS011;5814;41.936;25.556;2022-11-20T14:48:30;30.12;;;8.75;;
11514;SDS011;5814;41.936;25.556;2022-11-20T14:50:56;27.20;;;7.18;;
11514;SDS011;5814;41.936;25.556;2022-11-20T14:53:24;29.17;;;8.30;;
11514;SDS011;5814;41.936;25.556;2022-11-20T14:55:54;33.55;;;8.25;;
11514;SDS011;5814;41.936;25.556;2022-11-20T14:58:22;31.83;;;7.78;;
11514;SDS011;5814;41.936;25.556;2022-11-20T15:00:55;20.62;;;7.47;;
11514;SDS011;5814;41.936;25.556;2022-11-20T15:03:30;36.47;;;8.35;;
11514;SDS011;5814;41.936;25.556;2022-11-20T15:05:58;28.98;;;8.55;;
11514;SDS011;5814;41.936;25.556;2022-11-20T15:08:26;43.28;;;7.68;;
11514;SDS011;5814;41.936;25.556;2022-11-20T15:10:53;23.48;;;7.75;;
11514;SDS011;5814;41.936;25.556;2022-11-20T15:13:24;28.73;;;7.85;;